Time;durP1;ratioP1;P1;durP2;ratioP2;P2;SDS_P1;SDS_P2;PMS_P1;PMS_P2;Temp;Humidity;BMP_temperature;BMP_pressure;BME280_temperature;BME280_humidity;BME280_pressure;Samples;Min_cycle;Max_cycle;Signal;HPM_P1;HPM_P2
2022/10/10 00:00:45;;;;;;;6.32;3.85;;;17.40;99.90;;;;;;5114813;28;20030;-92
2022/10/10 00:03:11;;;;;;;5.35;3.67;;;17.30;99.90;;;;;;5124885;27;20019;-92
2022/10/10 00:05:37;;;;;;;6.38;3.78;;;17.30;99.90;;;;;;5117332;27;20084;-92
2022/10/10 00:08:03;;;;;;;3.90;3.30;;;17.30;99.90;;;;;;5117223;27;20038;-92
2022/10/10 00:10:29;;;;;;;7.68;3.85;;;17.30;99.90;;;;;;5135561;27;20026;-92
2022/10/10 00:12:55;;;;;;;4.18;3.60;;;17.30;99.90;;;;;;5117334;27;20023;-92
2022/10/10 00:15:21;;;;;;;4.30;3.60;;;17.20;99.90;;;;;;5135797;27;20027;-91
2022/10/10 00:17:46;;;;;;;4.68;3.40;;;17.20;99.90;;;;;;5135649;27;20046;-92
2022/10/10 00:20:15;;;;;;;4.50;3.45;;;17.30;99.90;;;;;;5135373;27;20497;-92
2022/10/10 00:22:41;;;;;;;5.65;3.95;;;17.30;99.90;;;;;;5135175;27;20505;-92
2022/10/10 00:25:08;;;;;;;4.53;3.28;;;17.20;99.90;;;;;;5135371;27;20036;-92
2022/10/10 00:27:35;;;;;;;6.05;3.80;;;17.30;99.90;;;;;;5135206;27;20023;-92
2022/10/10 00:30:04;;;;;;;5.60;3.58;;;17.30;99.90;;;;;;5117174;27;20049;-92
2022/10/10 00:32:29;;;;;;;7.43;4.03;;;17.20;99.90;;;;;;5097794;28;20027;-92
2022/10/10 00:34:55;;;;;;;4.20;3.50;;;17.30;99.90;;;;;;5130881;27;20072;-91
2022/10/10 00:37:20;;;;;;;5.10;3.70;;;17.30;99.90;;;;;;5114258;28;20035;-92
2022/10/10 00:39:46;;;;;;;5.85;3.40;;;17.40;99.90;;;;;;5114657;28;20043;-92
2022/10/10 00:42:14;;;;;;;6.65;3.58;;;17.40;99.90;;;;;;5114708;28;20360;-92
2022/10/10 00:44:41;;;;;;;6.38;3.67;;;17.30;99.90;;;;;;5096464;28;20060;-92
2022/10/10 00:47:08;;;;;;;4.72;3.38;;;17.30;99.90;;;;;;5096359;28;20028;-92
2022/10/10 00:49:36;;;;;;;5.30;3.40;;;17.30;99.90;;;;;;5114982;28;20028;-92
2022/10/10 00:52:02;;;;;;;4.30;3.58;;;17.30;99.90;;;;;;5095879;28;20023;-92
2022/10/10 00:54:30;;;;;;;3.72;3.30;;;17.20;99.90;;;;;;5114709;28;20088;-92
2022/10/10 00:57:03;;;;;;;4.38;3.45;;;17.20;99.90;;;;;;5096428;28;20031;-92
2022/10/10 00:59:32;;;;;;;6.22;3.60;;;17.20;99.90;;;;;;5114359;28;20027;-92
2022/10/10 01:01:58;;;;;;;5.10;3.75;;;17.20;99.90;;;;;;5113819;28;20024;-92
2022/10/10 01:04:35;;;;;;;5.25;3.63;;;17.20;99.90;;;;;;5115955;28;20034;-92
2022/10/10 01:07:04;;;;;;;5.97;3.60;;;17.10;99.90;;;;;;5135180;28;20027;-92
2022/10/10 01:09:32;;;;;;;4.90;3.72;;;17.10;99.90;;;;;;5116489;28;20029;-92
2022/10/10 01:12:03;;;;;;;6.18;3.67;;;17.00;99.90;;;;;;5134708;28;20023;-92
2022/10/10 01:14:58;;;;;;;7.47;4.15;;;17.10;99.90;;;;;;5116695;28;20042;-92
2022/10/10 01:17:33;;;;;;;6.78;3.90;;;17.10;99.90;;;;;;5137190;27;20143;-92
2022/10/10 01:20:24;;;;;;;4.82;3.90;;;17.10;99.90;;;;;;5139020;27;20057;-91
2022/10/10 01:23:17;;;;;;;4.65;3.50;;;17.10;99.90;;;;;;5125470;27;20038;-92
2022/10/10 01:26:20;;;;;;;6.18;4.22;;;17.10;99.90;;;;;;5138883;27;20451;-92
2022/10/10 01:28:51;;;;;;;5.28;3.70;;;17.00;99.90;;;;;;5138850;27;20057;-92
2022/10/10 01:31:21;;;;;;;4.70;3.85;;;17.00;99.90;;;;;;5129265;27;20558;-92
2022/10/10 01:34:01;;;;;;;4.20;3.75;;;17.00;99.90;;;;;;5117658;28;20137;-91
2022/10/10 01:36:50;;;;;;;4.82;3.97;;;17.00;99.90;;;;;;5118227;28;20035;-92
2022/10/10 01:39:28;;;;;;;5.38;3.88;;;17.00;99.90;;;;;;5035721;28;20112;-92
2022/10/10 01:42:02;;;;;;;6.53;4.15;;;16.90;99.90;;;;;;5035984;28;20116;-92
2022/10/10 01:44:27;;;;;;;4.38;3.95;;;17.00;99.90;;;;;;5019019;28;20033;-91
2022/10/10 01:46:53;;;;;;;5.68;3.95;;;16.90;99.90;;;;;;5035494;28;20120;-92
2022/10/10 01:49:24;;;;;;;6.50;4.55;;;16.90;99.90;;;;;;5035203;28;20106;-92
2022/10/10 01:52:05;;;;;;;4.93;4.35;;;16.80;99.90;;;;;;5035331;28;20052;-92
2022/10/10 01:54:39;;;;;;;5.70;4.03;;;16.90;99.90;;;;;;5035876;28;20025;-92
2022/10/10 01:57:13;;;;;;;5.25;3.95;;;16.90;99.90;;;;;;5035220;28;20037;-91
2022/10/10 02:00:02;;;;;;;5.68;4.70;;;16.90;99.90;;;;;;5035179;28;20026;-92
2022/10/10 02:02:50;;;;;;;4.75;4.25;;;16.90;99.90;;;;;;5038322;28;20032;-92
2022/10/10 02:05:46;;;;;;;5.50;4.30;;;16.90;99.90;;;;;;5055337;28;20144;-91
2022/10/10 02:08:24;;;;;;;6.65;4.60;;;16.90;99.90;;;;;;5055455;28;20021;-91
2022/10/10 02:10:55;;;;;;;5.93;4.65;;;16.80;99.90;;;;;;5055225;28;20044;-92
2022/10/10 02:13:25;;;;;;;6.13;3.75;;;16.80;99.90;;;;;;5054768;28;20017;-91
2022/10/10 02:15:54;;;;;;;6.10;4.25;;;16.80;99.90;;;;;;5079704;27;20027;-92
2022/10/10 02:18:26;;;;;;;8.75;4.82;;;16.80;99.90;;;;;;5137509;27;20019;-91
2022/10/10 02:20:53;;;;;;;5.43;4.50;;;16.70;99.90;;;;;;5119602;27;20026;-92
2022/10/10 02:23:20;;;;;;;7.65;4.22;;;16.70;99.90;;;;;;5119307;27;20027;-91
2022/10/10 02:25:52;;;;;;;6.40;4.47;;;16.70;99.90;;;;;;5137695;27;20039;-92
2022/10/10 02:28:38;;;;;;;5.13;4.35;;;16.60;99.90;;;;;;5137697;27;20023;-92
2022/10/10 02:31:18;;;;;;;5.50;4.57;;;16.60;99.90;;;;;;5111909;28;20030;-92
2022/10/10 02:33:55;;;;;;;5.72;4.22;;;16.60;99.90;;;;;;5116567;28;20044;-91
2022/10/10 02:36:22;;;;;;;5.43;4.82;;;16.60;99.90;;;;;;5117089;28;20027;-92
2022/10/10 02:38:48;;;;;;;6.55;4.80;;;16.50;99.90;;;;;;5116961;28;20012;-92
2022/10/10 02:41:17;;;;;;;6.15;4.50;;;16.50;99.90;;;;;;5117011;28;20483;-92
2022/10/10 02:43:43;;;;;;;7.07;4.78;;;16.50;99.90;;;;;;5116537;28;20034;-91
2022/10/10 02:46:12;;;;;;;6.50;4.40;;;16.50;99.90;;;;;;5115624;28;20035;-92
2022/10/10 02:48:37;;;;;;;5.93;4.78;;;16.40;99.90;;;;;;5116019;28;20047;-92
2022/10/10 02:51:03;;;;;;;6.50;5.43;;;16.40;99.90;;;;;;5116576;28;20047;-92
2022/10/10 02:53:29;;;;;;;6.40;4.93;;;16.40;99.90;;;;;;5115459;28;20103;-87
2022/10/10 02:55:55;;;;;;;6.25;4.65;;;16.40;99.90;;;;;;5115312;28;20115;-90
2022/10/10 02:58:20;;;;;;;5.35;4.85;;;16.40;99.90;;;;;;5131527;27;20068;-89
2022/10/10 03:00:46;;;;;;;5.93;4.65;;;16.40;99.90;;;;;;5115070;28;20028;-89
2022/10/10 03:03:11;;;;;;;7.07;4.72;;;16.40;99.90;;;;;;5097155;28;20527;-89
2022/10/10 03:05:37;;;;;;;5.13;4.63;;;16.30;99.90;;;;;;5097152;28;20039;-89
2022/10/10 03:08:03;;;;;;;9.82;5.55;;;16.40;99.90;;;;;;5097112;28;20024;-88
2022/10/10 03:10:28;;;;;;;5.18;4.60;;;16.40;99.90;;;;;;5114554;28;20023;-89
2022/10/10 03:12:54;;;;;;;6.10;4.97;;;16.40;99.90;;;;;;5096606;28;20054;-88
2022/10/10 03:15:20;;;;;;;5.63;5.07;;;16.40;99.90;;;;;;5096548;28;20063;-89
2022/10/10 03:17:45;;;;;;;5.93;4.95;;;16.40;99.90;;;;;;5114796;28;20019;-87
2022/10/10 03:20:11;;;;;;;5.28;4.63;;;16.40;99.90;;;;;;5096572;28;20027;-88
2022/10/10 03:22:36;;;;;;;7.65;5.30;;;16.40;99.90;;;;;;5114718;28;20015;-89
2022/10/10 03:25:03;;;;;;;7.13;5.35;;;16.30;99.90;;;;;;5114162;28;20027;-88
2022/10/10 03:27:29;;;;;;;8.18;4.80;;;16.30;99.90;;;;;;5114499;28;20105;-88
2022/10/10 03:29:54;;;;;;;5.53;5.03;;;16.30;99.90;;;;;;5095734;28;20058;-88
2022/10/10 03:32:20;;;;;;;7.35;5.07;;;16.20;99.90;;;;;;5096300;28;20024;-86
2022/10/10 03:34:46;;;;;;;6.88;5.45;;;16.20;99.90;;;;;;5114464;28;20051;-91
2022/10/10 03:37:11;;;;;;;5.97;5.38;;;16.20;99.90;;;;;;5115099;28;20449;-91
2022/10/10 03:39:37;;;;;;;9.00;5.60;;;16.20;99.90;;;;;;5096245;28;20030;-91
2022/10/10 03:42:03;;;;;;;9.45;6.03;;;16.10;99.90;;;;;;5115627;28;20051;-91
2022/10/10 03:44:28;;;;;;;9.32;5.35;;;16.10;99.90;;;;;;5096104;28;20016;-91
2022/10/10 03:46:54;;;;;;;6.55;5.85;;;16.10;99.90;;;;;;5115045;28;20053;-91
2022/10/10 03:49:20;;;;;;;6.95;5.30;;;16.10;99.90;;;;;;5096716;28;20510;-91
2022/10/10 03:51:45;;;;;;;6.00;5.30;;;16.00;99.90;;;;;;5097050;28;20027;-92
2022/10/10 03:54:11;;;;;;;8.55;5.80;;;16.00;99.90;;;;;;5115322;28;20103;-92
2022/10/10 03:56:37;;;;;;;8.77;5.63;;;16.00;99.90;;;;;;5114772;28;20031;-91
2022/10/10 03:59:04;;;;;;;6.60;5.30;;;16.00;99.90;;;;;;5114658;28;20020;-91
2022/10/10 04:01:30;;;;;;;7.18;5.93;;;16.00;99.90;;;;;;5114680;28;20023;-91
2022/10/10 04:03:56;;;;;;;6.60;5.53;;;16.00;99.90;;;;;;5096477;28;20031;-91
2022/10/10 04:06:21;;;;;;;8.35;5.70;;;16.00;99.90;;;;;;5114400;28;20137;-91
2022/10/10 04:08:47;;;;;;;9.13;6.47;;;15.90;99.90;;;;;;5099077;28;20164;-91
2022/10/10 04:11:13;;;;;;;8.43;5.70;;;15.90;99.90;;;;;;5114672;28;20419;-92
2022/10/10 04:13:39;;;;;;;9.35;6.45;;;15.90;99.90;;;;;;5096245;28;20023;-91
2022/10/10 04:16:04;;;;;;;7.63;6.10;;;15.80;99.90;;;;;;5114505;28;20032;-91
2022/10/10 04:18:30;;;;;;;8.57;6.05;;;15.80;99.90;;;;;;5114817;28;20023;-92
2022/10/10 04:20:56;;;;;;;7.30;6.20;;;15.90;99.90;;;;;;5114132;28;20487;-91
2022/10/10 04:23:22;;;;;;;8.13;6.18;;;15.80;99.90;;;;;;5114378;28;20555;-91
2022/10/10 04:25:50;;;;;;;7.32;6.20;;;15.80;99.90;;;;;;5114220;28;20058;-91
2022/10/10 04:28:15;;;;;;;6.93;6.25;;;15.80;99.90;;;;;;5114132;28;20558;-92
2022/10/10 04:30:41;;;;;;;7.28;6.00;;;15.80;99.90;;;;;;5096152;28;20055;-91
2022/10/10 04:33:07;;;;;;;6.63;5.60;;;15.80;99.90;;;;;;5096269;28;20475;-91
2022/10/10 04:35:33;;;;;;;9.05;6.35;;;15.80;99.90;;;;;;5094069;28;20052;-91
2022/10/10 04:37:59;;;;;;;6.65;5.35;;;15.70;99.90;;;;;;5092804;28;20028;-91
2022/10/10 04:40:25;;;;;;;6.38;5.78;;;15.70;99.90;;;;;;5093364;28;20028;-91
2022/10/10 04:42:50;;;;;;;8.10;5.65;;;15.70;99.90;;;;;;5093728;28;20027;-91
2022/10/10 04:45:17;;;;;;;6.50;5.72;;;15.70;99.90;;;;;;5093684;28;20111;-91
2022/10/10 04:47:42;;;;;;;7.97;5.72;;;15.70;99.90;;;;;;5092350;28;20602;-91
2022/10/10 04:50:08;;;;;;;7.57;5.85;;;15.70;99.90;;;;;;5093404;28;20099;-91
2022/10/10 04:52:34;;;;;;;8.13;5.57;;;15.70;99.90;;;;;;5092738;28;20134;-91
2022/10/10 04:54:59;;;;;;;7.38;5.78;;;15.70;99.90;;;;;;5093570;28;20077;-91
2022/10/10 04:57:25;;;;;;;7.15;5.85;;;15.70;99.90;;;;;;5093029;28;20061;-92
2022/10/10 04:59:51;;;;;;;8.38;6.13;;;15.60;99.90;;;;;;5093627;28;20028;-91
2022/10/10 05:02:17;;;;;;;9.77;5.70;;;15.70;99.90;;;;;;5093125;28;20067;-91
2022/10/10 05:04:42;;;;;;;7.60;5.75;;;15.60;99.90;;;;;;5093419;28;20024;-91
2022/10/10 05:07:08;;;;;;;6.72;5.30;;;15.70;99.90;;;;;;5093083;28;20024;-91
2022/10/10 05:09:34;;;;;;;6.57;5.65;;;15.50;99.90;;;;;;5093351;28;20090;-91
2022/10/10 05:12:00;;;;;;;6.38;5.38;;;15.50;99.90;;;;;;5093014;28;20127;-92
2022/10/10 05:14:26;;;;;;;7.60;6.00;;;15.50;99.90;;;;;;5092687;28;20111;-91
2022/10/10 05:16:52;;;;;;;6.82;5.40;;;15.40;99.90;;;;;;5093284;28;20043;-91
2022/10/10 05:19:17;;;;;;;7.25;5.75;;;15.50;99.90;;;;;;5091956;28;20044;-91
2022/10/10 05:21:43;;;;;;;11.20;6.00;;;15.50;99.90;;;;;;5091832;28;20031;-91
2022/10/10 05:24:09;;;;;;;8.60;5.80;;;15.40;99.90;;;;;;5093225;28;20020;-91
2022/10/10 05:26:34;;;;;;;6.80;6.10;;;15.40;99.90;;;;;;5091587;28;20070;-91
2022/10/10 05:29:00;;;;;;;5.80;5.30;;;15.40;99.90;;;;;;5092047;28;20028;-91
2022/10/10 05:31:27;;;;;;;7.13;5.85;;;15.50;99.90;;;;;;5092313;28;20024;-91
2022/10/10 05:33:53;;;;;;;7.63;5.40;;;15.40;99.90;;;;;;5091839;28;20551;-91
2022/10/10 05:36:18;;;;;;;8.55;6.07;;;15.40;99.90;;;;;;5092187;28;20028;-91
2022/10/10 05:38:44;;;;;;;10.65;5.72;;;15.40;99.90;;;;;;5091986;28;20059;-91
2022/10/10 05:41:11;;;;;;;8.40;5.32;;;15.40;99.90;;;;;;5092523;28;20021;-92
2022/10/10 05:43:37;;;;;;;12.13;5.40;;;15.40;99.90;;;;;;5093486;28;20020;-91
2022/10/10 05:46:03;;;;;;;15.63;14.02;;;15.40;99.90;;;;;;5091901;28;20373;-91
2022/10/10 05:48:28;;;;;;;7.43;5.72;;;15.40;99.90;;;;;;5092033;28;20021;-91
2022/10/10 05:50:56;;;;;;;9.43;6.05;;;15.30;99.90;;;;;;5092028;28;20020;-91
2022/10/10 05:53:23;;;;;;;8.35;6.47;;;15.60;99.90;;;;;;5092794;28;20028;-91
2022/10/10 05:55:49;;;;;;;7.55;6.30;;;15.40;99.90;;;;;;5091626;28;20044;-92
2022/10/10 05:58:14;;;;;;;9.68;6.35;;;15.40;99.90;;;;;;5092105;28;20020;-91
2022/10/10 06:00:42;;;;;;;9.32;6.50;;;15.50;99.90;;;;;;5091723;28;20065;-91
2022/10/10 06:03:13;;;;;;;8.98;6.28;;;15.50;99.90;;;;;;5093085;28;20048;-92
2022/10/10 06:05:47;;;;;;;10.88;7.10;;;15.50;99.90;;;;;;5096510;28;20043;-91
2022/10/10 06:08:13;;;;;;;15.18;7.50;;;15.60;99.90;;;;;;5096614;28;20484;-91
2022/10/10 06:10:42;;;;;;;12.98;7.45;;;15.70;99.90;;;;;;5096233;28;20084;-91
2022/10/10 06:13:08;;;;;;;11.68;7.53;;;15.70;99.90;;;;;;5095795;28;20032;-92
2022/10/10 06:15:34;;;;;;;9.88;6.90;;;15.90;99.90;;;;;;5095052;28;20047;-88
2022/10/10 06:18:00;;;;;;;7.57;5.80;;;15.70;99.90;;;;;;5095842;28;20020;-84
2022/10/10 06:20:25;;;;;;;10.88;5.78;;;15.80;99.90;;;;;;5095290;28;20039;-88
2022/10/10 06:22:51;;;;;;;9.73;5.80;;;16.00;99.90;;;;;;5095181;28;20044;-87
2022/10/10 06:25:17;;;;;;;8.82;5.90;;;16.00;99.90;;;;;;5094920;28;20119;-91
2022/10/10 06:27:42;;;;;;;7.95;5.40;;;15.90;99.90;;;;;;5095114;28;20024;-87
2022/10/10 06:30:09;;;;;;;7.65;5.38;;;16.00;99.90;;;;;;5094350;28;20027;-86
2022/10/10 06:32:35;;;;;;;6.78;5.65;;;15.90;99.90;;;;;;5094311;28;20313;-85
2022/10/10 06:35:00;;;;;;;6.90;5.28;;;15.80;99.90;;;;;;5110612;28;20387;-86
2022/10/10 06:37:26;;;;;;;9.02;5.55;;;15.90;99.90;;;;;;5115490;28;20493;-86
2022/10/10 06:39:51;;;;;;;8.63;5.72;;;15.90;99.90;;;;;;5096353;28;20031;-85
2022/10/10 06:42:17;;;;;;;7.28;5.93;;;16.00;99.90;;;;;;5115014;28;20020;-86
2022/10/10 06:44:42;;;;;;;8.55;6.20;;;15.90;99.90;;;;;;5114763;28;20110;-90
2022/10/10 06:47:10;;;;;;;8.02;6.47;;;15.90;99.90;;;;;;5114999;28;20368;-90
2022/10/10 06:49:36;;;;;;;8.02;6.10;;;15.90;99.90;;;;;;5106205;28;20099;-91
2022/10/10 06:52:02;;;;;;;12.38;5.85;;;16.00;99.90;;;;;;5090455;28;20051;-91
2022/10/10 06:54:27;;;;;;;10.48;6.70;;;16.00;99.90;;;;;;5097697;28;20034;-90
2022/10/10 06:56:53;;;;;;;7.78;6.53;;;16.10;99.90;;;;;;5115655;28;20035;-90
2022/10/10 06:59:18;;;;;;;8.75;7.00;;;16.10;99.90;;;;;;5119199;28;20024;-92
2022/10/10 07:01:44;;;;;;;14.07;6.60;;;16.20;99.90;;;;;;5116089;28;20032;-88
2022/10/10 07:04:12;;;;;;;9.45;7.07;;;16.20;99.90;;;;;;5113726;28;20075;-87
2022/10/10 07:06:38;;;;;;;10.40;6.90;;;16.40;99.90;;;;;;5114679;28;20411;-87
2022/10/10 07:09:03;;;;;;;9.10;7.15;;;16.30;99.90;;;;;;5115025;28;20068;-88
2022/10/10 07:11:29;;;;;;;7.90;7.07;;;16.40;99.90;;;;;;5115326;28;20031;-88
2022/10/10 07:13:55;;;;;;;7.60;6.50;;;16.50;99.90;;;;;;5114098;28;20105;-88
2022/10/10 07:16:20;;;;;;;7.00;6.28;;;16.70;99.90;;;;;;5114681;28;20023;-88
2022/10/10 07:18:46;;;;;;;8.95;6.88;;;16.70;99.90;;;;;;5114790;28;20421;-87
2022/10/10 07:21:12;;;;;;;9.45;7.00;;;16.60;99.90;;;;;;5096838;28;20110;-89
2022/10/10 07:23:38;;;;;;;7.40;6.50;;;16.70;99.90;;;;;;5095909;28;20380;-88
2022/10/10 07:26:07;;;;;;;8.65;6.07;;;16.80;99.90;;;;;;5114497;28;20067;-87
2022/10/10 07:28:33;;;;;;;7.70;5.97;;;16.70;99.90;;;;;;5114906;28;20045;-87
2022/10/10 07:31:04;;;;;;;8.00;6.10;;;16.70;99.90;;;;;;5107683;28;20471;-87
2022/10/10 07:33:31;;;;;;;7.20;6.38;;;16.70;99.90;;;;;;5093845;28;20036;-87
2022/10/10 07:35:57;;;;;;;8.02;6.05;;;16.80;99.90;;;;;;5094259;28;20197;-88
2022/10/10 07:38:22;;;;;;;7.25;6.20;;;17.00;99.90;;;;;;5093457;28;20095;-87
2022/10/10 07:40:48;;;;;;;7.47;5.70;;;17.00;99.90;;;;;;5075683;28;20024;-87
2022/10/10 07:43:13;;;;;;;8.68;5.78;;;17.30;99.90;;;;;;5093708;28;20453;-87
2022/10/10 07:45:39;;;;;;;8.43;5.40;;;17.30;99.90;;;;;;5093605;28;20438;-88
2022/10/10 07:48:05;;;;;;;6.78;5.15;;;17.40;99.90;;;;;;5093836;28;20028;-87
2022/10/10 07:50:31;;;;;;;5.70;4.85;;;17.40;99.90;;;;;;5093460;28;20032;-87
2022/10/10 07:52:56;;;;;;;4.80;4.05;;;17.50;99.90;;;;;;5075129;28;20392;-88
2022/10/10 07:55:22;;;;;;;6.82;4.15;;;17.60;99.90;;;;;;5093921;28;20055;-88
2022/10/10 07:57:49;;;;;;;5.75;3.70;;;17.90;99.90;;;;;;5093806;28;20046;-87
2022/10/10 08:00:17;;;;;;;4.80;3.28;;;17.90;99.90;;;;;;5093201;28;20024;-88
2022/10/10 08:02:42;;;;;;;5.82;3.28;;;18.70;99.90;;;;;;5114954;27;20504;-87
2022/10/10 08:05:08;;;;;;;4.43;3.03;;;22.70;99.90;;;;;;5113418;28;20111;-87
2022/10/10 08:07:34;;;;;;;4.25;3.42;;;26.30;99.90;;;;;;5095372;28;20050;-88
2022/10/10 08:10:01;;;;;;;7.00;2.83;;;29.00;99.90;;;;;;5113711;28;20055;-87
2022/10/10 08:12:27;;;;;;;5.55;3.58;;;30.50;99.90;;;;;;5113969;28;20030;-88
2022/10/10 08:14:52;;;;;;;8.77;3.10;;;30.40;99.90;;;;;;5113672;28;20024;-88
2022/10/10 08:17:18;;;;;;;4.50;3.00;;;31.30;99.90;;;;;;5113547;28;20038;-88
2022/10/10 08:19:44;;;;;;;4.10;3.08;;;31.60;99.90;;;;;;5113099;28;20028;-88
2022/10/10 08:22:10;;;;;;;4.50;2.80;;;32.30;99.90;;;;;;5113934;28;20039;-88
2022/10/10 08:24:35;;;;;;;3.72;2.92;;;33.60;99.90;;;;;;5113624;28;20051;-88
2022/10/10 08:27:01;;;;;;;5.07;2.90;;;34.50;99.90;;;;;;5113097;28;20110;-88
2022/10/10 08:29:26;;;;;;;3.55;2.70;;;33.30;99.90;;;;;;5113261;28;20019;-88
2022/10/10 08:31:52;;;;;;;2.60;2.30;;;34.70;99.90;;;;;;5113271;28;20055;-88
2022/10/10 08:34:18;;;;;;;3.67;2.35;;;33.70;99.90;;;;;;5094743;28;20089;-88
2022/10/10 08:36:43;;;;;;;3.38;2.00;;;32.20;99.90;;;;;;5113185;28;20026;-88
2022/10/10 08:39:09;;;;;;;6.18;2.60;;;32.90;99.90;;;;;;5113222;28;20053;-88
2022/10/10 08:41:41;;;;;;;3.78;2.58;;;34.10;99.90;;;;;;5112969;28;20032;-88
2022/10/10 08:44:17;;;;;;;3.85;2.15;;;34.50;99.90;;;;;;5113091;28;20024;-88
2022/10/10 08:46:54;;;;;;;2.83;1.90;;;33.90;99.90;;;;;;5113099;28;20114;-88
2022/10/10 08:49:26;;;;;;;2.38;2.17;;;33.00;99.90;;;;;;5112954;28;20023;-93
2022/10/10 08:52:04;;;;;;;2.80;1.92;;;32.20;99.90;;;;;;5112923;28;20027;-91
2022/10/10 08:54:32;;;;;;;3.58;1.98;;;32.30;99.90;;;;;;5113241;28;20027;-89
2022/10/10 08:56:59;;;;;;;2.83;2.20;;;34.50;99.90;;;;;;5112391;28;20032;-90
2022/10/10 08:59:43;;;;;;;3.42;1.85;;;34.70;99.90;;;;;;5112302;28;20077;-90
2022/10/10 09:02:31;;;;;;;3.85;1.92;;;35.50;99.90;;;;;;5112745;28;20024;-89
2022/10/10 09:04:56;;;;;;;3.25;1.90;;;35.60;99.90;;;;;;5112299;28;20030;-89
2022/10/10 09:07:43;;;;;;;3.67;2.00;;;36.10;99.90;;;;;;5112519;28;20028;-89
2022/10/10 09:10:24;;;;;;;2.88;1.60;;;36.70;99.90;;;;;;5112646;28;20051;-90
2022/10/10 09:13:29;;;;;;;3.70;1.85;;;37.50;99.90;;;;;;5112760;28;20063;-90
2022/10/10 09:16:02;;;;;;;3.15;2.03;;;34.50;99.90;;;;;;5090563;28;20070;-90
2022/10/10 09:19:01;;;;;;;3.17;1.80;;;35.40;99.90;;;;;;5112904;28;20032;-93
2022/10/10 09:21:32;;;;;;;2.25;1.75;;;36.50;99.90;;;;;;5133355;28;20027;-91
2022/10/10 09:24:16;;;;;;;2.30;1.73;;;37.70;99.90;;;;;;5098570;28;20089;-90
2022/10/10 09:26:49;;;;;;;2.63;1.65;;;37.90;99.90;;;;;;5112136;28;20050;-90
2022/10/10 09:29:38;;;;;;;2.60;1.80;;;37.50;99.90;;;;;;5113018;28;20400;-90
2022/10/10 09:32:13;;;;;;;2.30;1.77;;;37.50;99.90;;;;;;5112546;28;20036;-90
2022/10/10 09:34:44;;;;;;;3.00;1.60;;;36.80;99.90;;;;;;5112045;28;20415;-88
2022/10/10 09:37:43;;;;;;;4.28;1.95;;;38.10;99.90;;;;;;5093856;28;20039;-90
2022/10/10 09:40:35;;;;;;;2.47;1.65;;;38.90;99.90;;;;;;5000114;28;20035;-94
2022/10/10 09:43:19;;;;;;;2.45;1.77;;;38.50;99.90;;;;;;4995215;28;20042;-94
2022/10/10 09:45:51;;;;;;;3.90;1.70;;;40.10;99.90;;;;;;4978477;28;20133;-92
2022/10/10 09:48:18;;;;;;;4.47;1.70;;;37.70;99.90;;;;;;4995764;28;20450;-93
2022/10/10 09:50:44;;;;;;;2.45;1.60;;;34.70;99.90;;;;;;4996152;28;20166;-91
2022/10/10 09:53:14;;;;;;;3.05;1.80;;;36.70;99.90;;;;;;4986777;28;20105;-93
2022/10/10 09:55:41;;;;;;;4.25;1.67;;;35.90;99.90;;;;;;4996765;28;20037;-90
2022/10/10 09:58:14;;;;;;;2.67;1.63;;;38.60;99.90;;;;;;5018502;28;20018;-91
2022/10/10 10:00:39;;;;;;;3.17;1.90;;;37.40;99.90;;;;;;5011620;28;20026;-92
2022/10/10 10:03:08;;;;;;;2.80;1.70;;;38.40;99.90;;;;;;5012936;28;20125;-93
2022/10/10 10:05:33;;;;;;;1.77;1.50;;;37.10;99.90;;;;;;4994025;28;20100;-91
2022/10/10 10:07:59;;;;;;;1.95;1.77;;;37.70;99.90;;;;;;4994487;28;20498;-91
2022/10/10 10:10:26;;;;;;;4.43;2.13;;;37.30;99.90;;;;;;4993683;28;20129;-91
2022/10/10 10:12:53;;;;;;;3.58;1.50;;;35.40;99.90;;;;;;5009692;28;20022;-91
2022/10/10 10:15:25;;;;;;;3.13;1.77;;;35.70;99.90;;;;;;5048472;28;20116;-92
2022/10/10 10:18:36;;;;;;;2.60;1.50;;;36.50;99.90;;;;;;5115387;28;20049;-89
2022/10/10 10:21:01;;;;;;;2.42;1.60;;;37.40;99.90;;;;;;5024485;28;20036;-90
2022/10/10 10:23:39;;;;;;;3.20;1.65;;;38.00;99.90;;;;;;5033057;28;20033;-90
2022/10/10 10:26:19;;;;;;;3.38;1.40;;;36.80;99.90;;;;;;5032644;28;20128;-91
2022/10/10 10:28:47;;;;;;;1.73;1.60;;;36.80;99.90;;;;;;5015815;28;20040;-95
2022/10/10 10:31:36;;;;;;;3.42;1.60;;;36.00;99.90;;;;;;5031523;28;20400;-95
2022/10/10 10:34:34;;;;;;;2.35;1.75;;;37.00;99.90;;;;;;5003239;28;20049;-90
2022/10/10 10:37:22;;;;;;;3.40;1.70;;;36.90;99.90;;;;;;4993498;28;20057;-90
2022/10/10 10:40:09;;;;;;;1.80;1.48;;;37.40;99.90;;;;;;4992905;28;20105;-90
2022/10/10 10:43:04;;;;;;;1.65;1.55;;;36.80;99.90;;;;;;4992353;28;20482;-90
2022/10/10 10:45:44;;;;;;;5.47;2.30;;;37.00;99.90;;;;;;4976265;28;20459;-92
2022/10/10 10:48:31;;;;;;;5.03;1.88;;;38.90;99.90;;;;;;4992507;28;20113;-88
2022/10/10 10:51:30;;;;;;;3.03;1.70;;;36.80;99.90;;;;;;4992463;28;20121;-90
2022/10/10 10:54:28;;;;;;;4.32;1.90;;;37.20;99.90;;;;;;5011258;28;20042;-94
2022/10/10 10:57:21;;;;;;;3.88;1.95;;;37.90;99.90;;;;;;4955324;29;20574;-93
2022/10/10 11:00:11;;;;;;;2.22;1.90;;;36.70;99.90;;;;;;4953501;29;20039;-89
2022/10/10 11:02:58;;;;;;;3.55;1.95;;;36.00;99.90;;;;;;4948851;28;20448;-87
2022/10/10 11:05:44;;;;;;;2.70;1.67;;;37.80;99.90;;;;;;4935796;29;20047;-91
2022/10/10 11:08:18;;;;;;;2.08;1.80;;;39.20;99.90;;;;;;4951319;29;20134;-88
2022/10/10 11:11:34;;;;;;;2.97;1.92;;;38.80;99.90;;;;;;4973840;28;20065;-88
2022/10/10 11:14:09;;;;;;;2.50;1.70;;;39.30;99.90;;;;;;4992235;28;20058;-88
2022/10/10 11:16:44;;;;;;;2.63;1.80;;;38.40;99.90;;;;;;4992551;28;20034;-88
2022/10/10 11:19:13;;;;;;;3.83;1.80;;;37.50;99.90;;;;;;4992397;28;20522;-88
2022/10/10 11:21:54;;;;;;;3.10;1.83;;;36.90;99.90;;;;;;4992543;28;20205;-88
2022/10/10 11:24:39;;;;;;;3.22;1.77;;;38.00;99.90;;;;;;4992818;28;20391;-88
2022/10/10 11:27:32;;;;;;;3.58;1.70;;;39.10;99.90;;;;;;4991573;28;20541;-88
2022/10/10 11:30:07;;;;;;;2.35;1.88;;;37.10;99.90;;;;;;4981744;28;20039;-88
2022/10/10 11:32:41;;;;;;;3.45;1.67;;;38.80;99.90;;;;;;4994360;28;20042;-87
2022/10/10 11:35:32;;;;;;;2.67;1.23;;;37.60;99.90;;;;;;5031128;28;20076;-88
2022/10/10 11:38:09;;;;;;;3.20;1.70;;;36.90;99.90;;;;;;5031438;28;20033;-88
2022/10/10 11:41:02;;;;;;;3.70;1.70;;;39.20;99.90;;;;;;5031184;28;20069;-87
2022/10/10 11:43:59;;;;;;;4.22;1.60;;;36.00;99.90;;;;;;5034339;28;20048;-87
2022/10/10 11:47:03;;;;;;;3.50;1.35;;;35.90;99.90;;;;;;5031018;28;20410;-88
2022/10/10 11:49:44;;;;;;;2.28;1.55;;;37.90;99.90;;;;;;5031146;28;20037;-88
2022/10/10 11:52:18;;;;;;;3.75;1.40;;;39.20;99.90;;;;;;5031069;28;20501;-88
2022/10/10 11:54:56;;;;;;;2.45;1.25;;;37.60;99.90;;;;;;5031098;28;20029;-88
2022/10/10 11:58:14;;;;;;;3.13;1.10;;;37.00;99.90;;;;;;5030766;28;20045;-88
2022/10/10 12:00:49;;;;;;;3.17;1.30;;;35.90;99.90;;;;;;4971639;28;20031;-88
2022/10/10 12:03:14;;;;;;;2.15;1.27;;;38.80;99.90;;;;;;4971905;28;20527;-88
2022/10/10 12:05:52;;;;;;;2.88;1.20;;;38.40;99.90;;;;;;4971868;28;20046;-88
2022/10/10 12:08:24;;;;;;;2.22;1.17;;;36.70;99.90;;;;;;4972456;28;20038;-89
2022/10/10 12:11:04;;;;;;;2.03;1.00;;;37.30;99.90;;;;;;4972246;28;20051;-88
2022/10/10 12:13:38;;;;;;;1.38;1.10;;;36.50;99.90;;;;;;4955450;28;20049;-89
2022/10/10 12:16:17;;;;;;;2.45;1.30;;;36.20;99.90;;;;;;4971643;28;20476;-88
2022/10/10 12:18:52;;;;;;;2.47;1.58;;;38.10;99.90;;;;;;4971840;28;20027;-89
2022/10/10 12:21:22;;;;;;;3.80;1.23;;;37.50;99.90;;;;;;4972227;28;20574;-88
2022/10/10 12:24:03;;;;;;;1.95;1.20;;;34.70;99.90;;;;;;5010483;28;20026;-88
2022/10/10 12:26:51;;;;;;;2.85;1.30;;;35.30;99.90;;;;;;5030150;28;20033;-89
2022/10/10 12:29:39;;;;;;;1.83;1.10;;;36.60;99.90;;;;;;5030161;28;20112;-88
2022/10/10 12:32:14;;;;;;;3.47;0.93;;;35.00;99.90;;;;;;5030511;28;20476;-88
2022/10/10 12:34:41;;;;;;;4.07;1.20;;;33.80;99.90;;;;;;5030071;28;20092;-88
2022/10/10 12:37:20;;;;;;;2.38;1.30;;;34.90;99.90;;;;;;5070804;28;20036;-88
2022/10/10 12:40:00;;;;;;;1.65;1.30;;;34.60;99.90;;;;;;5113068;28;20027;-88
2022/10/10 12:42:38;;;;;;;5.63;1.33;;;34.40;99.90;;;;;;5112677;28;20038;-88
2022/10/10 12:45:29;;;;;;;2.28;1.20;;;37.20;99.90;;;;;;5113208;28;20028;-88
2022/10/10 12:47:57;;;;;;;1.38;1.25;;;34.00;99.90;;;;;;5112779;28;20020;-88
2022/10/10 12:50:29;;;;;;;2.78;1.30;;;35.10;99.90;;;;;;5112863;28;20496;-88
2022/10/10 12:53:03;;;;;;;2.47;1.60;;;35.70;99.90;;;;;;5094393;28;20019;-88
2022/10/10 12:55:39;;;;;;;3.50;1.40;;;35.50;99.90;;;;;;5112497;28;20032;-88
2022/10/10 12:58:14;;;;;;;2.58;1.40;;;32.90;99.90;;;;;;5112758;28;20086;-88
2022/10/10 13:00:42;;;;;;;2.97;1.38;;;29.60;99.90;;;;;;5112785;28;20122;-88
2022/10/10 13:03:41;;;;;;;2.10;1.63;;;28.70;99.90;;;;;;5112440;28;20104;-88
2022/10/10 13:06:11;;;;;;;3.08;1.42;;;28.60;99.90;;;;;;5112583;28;20035;-88
2022/10/10 13:08:39;;;;;;;4.00;1.65;;;28.90;99.90;;;;;;5094271;28;20164;-88